Weather at El Centro NAF Airport (Vraciu Field)

Public forecast

Using degrees Fahrenheit for public forecast. Weather courtesy of forecast.io.

Current aviation weather report (METAR) for El Centro NAF Airport (Vraciu Field)

Retrieved 2021/01/16 21:56 UTC (30 minutes ago):

KNJK 162156Z 35007KT 10SM FEW250 31/M11 A2997 RMK SLP163 T03061111

Aviation forecast (TAF) for El Centro NAF Airport (Vraciu Field)

Forecast is more than 12 hours old.

Retrieved 2016/08/04 23:15 UTC (4 years ago):

TAF KNJK 032300Z 0323/0423 VRB06KT 9999 FEW080 FEW280 TEMPO 0323/0405 14010KT FM040600 VRB06KT FEW280 QNH2968INS AUTOMATED SENSOR METWATCH 0406 TIL 0413 TX41/0323Z TN28/0412Z FS30081